Time;durP1;ratioP1;P1;durP2;ratioP2;P2;SDS_P1;SDS_P2;PMS_P1;PMS_P2;Temp;Humidity;BMP_temperature;BMP_pressure;BME280_temperature;BME280_humidity;BME280_pressure;Samples;Min_cycle;Max_cycle;Signal;HPM_P1;HPM_P2
2022/07/22 07:58:59;;;;;;;4.95;1.98;;;;;;;19.23;65.45;101945.25;5318350;27;1474577;-85
2022/07/22 08:01:31;;;;;;;3.08;2.10;;;;;;;19.01;63.14;101939.66;5344974;28;20035;-84
2022/07/22 08:04:02;;;;;;;1.98;1.65;;;;;;;18.97;63.90;101939.47;5337879;28;20127;-88
2022/07/22 08:06:33;;;;;;;5.45;2.95;;;;;;;18.85;66.96;101931.63;5326470;28;20059;-85
2022/07/22 08:09:05;;;;;;;6.50;3.28;;;;;;;18.63;67.86;101943.63;5339679;28;20023;-84
2022/07/22 08:11:36;;;;;;;7.93;2.90;;;;;;;18.63;68.18;101934.38;5335850;28;20065;-85
2022/07/22 08:14:07;;;;;;;4.72;2.78;;;;;;;18.61;68.10;101931.91;5345742;27;20026;-82
2022/07/22 08:16:39;;;;;;;3.63;1.92;;;;;;;18.68;67.05;101931.44;5336260;28;20028;-91
2022/07/22 08:19:10;;;;;;;8.70;2.63;;;;;;;18.92;67.40;101934.00;5346537;27;20034;-87
2022/07/22 08:21:42;;;;;;;3.35;1.88;;;;;;;18.95;68.18;101929.72;5327324;27;20165;-90
2022/07/22 08:24:14;;;;;;;3.75;2.35;;;;;;;18.77;66.88;101940.00;5327322;28;20475;-91
2022/07/22 08:26:45;;;;;;;4.22;2.00;;;;;;;18.73;67.22;101941.75;5330182;28;20424;-92
2022/07/22 08:29:17;;;;;;;3.83;2.45;;;;;;;18.53;66.19;101938.25;5330233;28;20040;-88
2022/07/22 08:31:48;;;;;;;3.13;2.10;;;;;;;18.69;67.04;101933.94;5337804;28;20098;-82
2022/07/22 08:34:19;;;;;;;6.30;2.55;;;;;;;18.82;66.74;101943.50;5348342;28;20059;-87
2022/07/22 08:36:50;;;;;;;5.25;2.10;;;;;;;18.80;65.44;101933.72;5347057;27;20024;-80
2022/07/22 08:39:22;;;;;;;3.83;1.92;;;;;;;19.18;65.89;101930.50;5338735;28;20026;-84
2022/07/22 08:41:53;;;;;;;14.18;3.63;;;;;;;19.40;65.59;101927.63;5329702;28;20024;-86
2022/07/22 08:44:29;;;;;;;18.40;4.57;;;;;;;19.76;63.96;101921.00;5335023;28;20030;-84
2022/07/22 08:47:01;;;;;;;4.45;2.50;;;;;;;19.55;63.87;101926.38;5329787;28;20023;-82
2022/07/22 08:49:35;;;;;;;7.07;2.70;;;;;;;19.42;62.64;101922.50;5327410;28;20492;-85
2022/07/22 08:52:07;;;;;;;3.70;2.30;;;;;;;19.44;62.57;101919.38;5334661;28;20150;-84
2022/07/22 08:54:38;;;;;;;4.43;2.35;;;;;;;19.49;63.45;101922.06;5331073;28;20104;-84
2022/07/22 08:57:09;;;;;;;4.45;2.15;;;;;;;19.39;63.10;101917.53;5343236;27;20047;-84
2022/07/22 08:59:58;;;;;;;4.05;2.08;;;;;;;19.32;63.96;101925.59;5342863;28;20043;-85
2022/07/22 09:02:36;;;;;;;4.00;2.38;;;;;;;19.28;64.74;101921.81;5344127;27;20023;-80
2022/07/22 09:05:10;;;;;;;2.92;2.03;;;;;;;19.36;64.80;101923.81;5347443;27;20024;-90
2022/07/22 09:07:43;;;;;;;7.18;2.60;;;;;;;19.36;65.89;101925.81;5352527;27;20054;-90
2022/07/22 09:10:19;;;;;;;3.47;2.08;;;;;;;19.36;65.57;101923.81;5331366;27;20012;-91
2022/07/22 09:12:55;;;;;;;3.22;2.30;;;;;;;19.26;65.07;101933.34;5332247;28;20020;-92
2022/07/22 09:15:32;;;;;;;5.78;2.60;;;;;;;19.32;63.65;101922.78;5329297;28;20020;-84
2022/07/22 09:18:05;;;;;;;3.83;2.50;;;;;;;19.43;65.75;101924.19;5329051;28;20031;-89
2022/07/22 09:20:37;;;;;;;3.90;1.92;;;;;;;19.46;63.56;101923.53;5313884;28;20102;-89
2022/07/22 09:23:14;;;;;;;13.95;12.52;;;;;;;19.32;62.45;101923.63;5310269;28;20472;-90
2022/07/22 09:25:46;;;;;;;15.32;13.00;;;;;;;19.43;62.05;101914.91;5310611;28;20096;-89
2022/07/22 09:28:22;;;;;;;3.72;1.90;;;;;;;19.47;61.67;101916.75;5311783;28;20088;-88
2022/07/22 09:30:54;;;;;;;3.42;2.22;;;;;;;19.41;61.73;101908.78;5313100;28;20047;-89
2022/07/22 09:33:26;;;;;;;3.65;2.30;;;;;;;19.40;62.42;101918.38;5330209;28;20032;-89
2022/07/22 09:36:03;;;;;;;4.15;2.72;;;;;;;19.57;64.10;101901.56;5324836;28;20399;-88
2022/07/22 09:38:35;;;;;;;9.98;2.80;;;;;;;19.38;62.68;101904.66;5313871;28;20024;-85
2022/07/22 09:41:06;;;;;;;3.50;2.55;;;;;;;19.45;62.39;101906.97;5316273;28;20016;-87
2022/07/22 09:43:37;;;;;;;5.07;2.72;;;;;;;19.54;62.39;101903.03;5319587;28;20082;-84
2022/07/22 09:46:09;;;;;;;3.35;2.17;;;;;;;19.62;61.83;101892.97;5322375;28;20051;-88
2022/07/22 09:48:41;;;;;;;4.05;2.20;;;;;;;19.70;62.52;101899.81;5324026;28;20497;-87
2022/07/22 09:51:13;;;;;;;5.32;2.42;;;;;;;19.73;61.67;101891.53;5308115;28;20111;-85
2022/07/22 09:53:44;;;;;;;11.38;7.18;;;;;;;19.76;62.43;101895.69;5306599;28;20108;-85
2022/07/22 09:56:17;;;;;;;4.05;3.00;;;;;;;19.89;62.23;101897.56;5305600;28;20024;-86
2022/07/22 09:58:48;;;;;;;6.30;2.67;;;;;;;20.09;62.80;101906.53;5305841;28;20051;-85
2022/07/22 10:01:21;;;;;;;6.22;2.92;;;;;;;20.12;61.54;101903.03;5306740;28;20028;-87
2022/07/22 10:03:53;;;;;;;3.67;2.95;;;;;;;20.47;60.43;101906.72;5306707;28;20043;-85
2022/07/22 10:06:24;;;;;;;4.88;2.33;;;;;;;20.72;59.01;101891.00;5324431;28;20024;-87
2022/07/22 10:08:56;;;;;;;6.28;3.15;;;;;;;21.13;58.43;101900.03;5322394;28;20027;-84
2022/07/22 10:11:28;;;;;;;3.35;2.50;;;;;;;21.15;58.02;101911.81;5305988;28;20040;-84
2022/07/22 10:14:00;;;;;;;5.32;2.70;;;;;;;21.02;57.12;101902.38;5319630;28;20027;-93
2022/07/22 10:16:31;;;;;;;5.25;2.92;;;;;;;21.06;56.72;101894.91;5334506;28;20077;-94
2022/07/22 10:19:02;;;;;;;5.63;3.40;;;;;;;21.03;56.65;101889.94;5327912;28;20028;-82
2022/07/22 10:21:34;;;;;;;3.78;3.13;;;;;;;20.65;56.28;101892.66;5327457;28;20019;-88
2022/07/22 10:24:17;;;;;;;3.30;2.40;;;;;;;20.93;58.24;101895.94;5336074;28;20034;-84
2022/07/22 10:26:57;;;;;;;4.75;2.80;;;;;;;20.86;58.45;101907.72;5328559;28;20024;-85
2022/07/22 10:29:39;;;;;;;5.05;3.15;;;;;;;20.74;58.39;101905.59;5328213;28;20042;-84
2022/07/22 10:32:16;;;;;;;5.47;3.38;;;;;;;20.57;58.99;101895.16;5319703;28;20415;-82
2022/07/22 10:35:06;;;;;;;5.28;3.58;;;;;;;20.51;59.30;101909.72;5307320;28;20028;-84
2022/07/22 10:37:43;;;;;;;5.30;2.85;;;;;;;20.44;59.08;101906.56;5323602;28;20027;-82
2022/07/22 10:40:24;;;;;;;5.68;3.05;;;;;;;20.39;59.49;101908.38;5318543;28;20024;-82
2022/07/22 10:43:03;;;;;;;4.82;2.72;;;;;;;20.34;59.44;101907.72;5305855;28;20012;-81
2022/07/22 10:45:43;;;;;;;5.85;2.80;;;;;;;20.48;59.67;101896.28;5312242;28;20024;-79
2022/07/22 10:48:43;;;;;;;6.68;3.55;;;;;;;20.52;59.85;101900.09;5321028;28;20081;-75
2022/07/22 10:51:17;;;;;;;10.35;7.90;;;;;;;20.54;57.78;101895.81;5305187;28;20028;-80
2022/07/22 10:53:52;;;;;;;22.63;20.33;;;;;;;20.66;58.08;101892.34;5318527;28;20371;-81
2022/07/22 10:56:26;;;;;;;50.42;44.35;;;;;;;20.49;57.67;101892.31;5307679;28;20024;-84
2022/07/22 10:59:10;;;;;;;10.75;4.75;;;;;;;20.54;57.33;101883.69;5305083;28;20058;-81
2022/07/22 11:01:45;;;;;;;6.45;4.72;;;;;;;20.59;58.70;101880.72;5305738;28;20032;-82
2022/07/22 11:04:22;;;;;;;7.32;5.25;;;;;;;20.71;59.66;101883.72;5317784;28;20052;-82
2022/07/22 11:06:55;;;;;;;4.63;3.47;;;;;;;20.62;58.55;101885.69;5325273;28;20039;-84
2022/07/22 11:09:33;;;;;;;5.47;3.70;;;;;;;20.52;58.66;101878.38;5336170;28;20035;-86
2022/07/22 11:12:12;;;;;;;7.57;3.97;;;;;;;20.52;57.77;101877.56;5337103;28;20024;-87
2022/07/22 11:14:43;;;;;;;6.20;3.53;;;;;;;20.49;57.39;101875.41;5323959;28;20034;-88
2022/07/22 11:17:14;;;;;;;9.15;4.57;;;;;;;20.61;57.70;101876.41;5334478;28;20067;-87
2022/07/22 11:19:51;;;;;;;3.58;3.28;;;;;;;20.67;57.33;101876.25;5340375;28;20467;-82
2022/07/22 11:22:22;;;;;;;6.82;3.92;;;;;;;20.78;56.75;101869.91;5334571;28;20016;-84
2022/07/22 11:24:53;;;;;;;5.32;3.20;;;;;;;20.74;54.69;101870.94;5327871;28;20034;-83
2022/07/22 11:27:25;;;;;;;5.00;4.05;;;;;;;20.76;57.49;101866.63;5325827;28;20051;-85
2022/07/22 11:29:57;;;;;;;14.35;12.48;;;;;;;20.81;57.07;101871.22;5327412;28;20027;-84
2022/07/22 11:32:31;;;;;;;8.63;6.15;;;;;;;21.00;57.35;101874.50;5327343;28;20452;-85
2022/07/22 11:35:02;;;;;;;36.83;33.33;;;;;;;21.10;57.26;101861.22;5326254;28;20019;-83
2022/07/22 11:37:34;;;;;;;8.55;5.47;;;;;;;21.13;56.23;101855.72;5328217;28;20107;-82
2022/07/22 11:40:08;;;;;;;4.60;4.18;;;;;;;21.22;56.14;101850.91;5322515;28;20051;-84
2022/07/22 11:42:39;;;;;;;6.90;5.20;;;;;;;21.23;56.58;101844.06;5318219;28;20028;-85
2022/07/22 11:45:11;;;;;;;9.65;4.60;;;;;;;21.24;54.87;101837.28;5311757;28;20426;-84
2022/07/22 11:47:50;;;;;;;5.30;3.95;;;;;;;21.71;54.79;101831.56;5325142;28;20023;-87
2022/07/22 11:50:33;;;;;;;6.43;4.30;;;;;;;21.63;54.71;101818.34;5326857;28;20443;-85
2022/07/22 11:53:05;;;;;;;4.63;3.90;;;;;;;21.73;55.09;101817.13;5328595;28;20031;-85
2022/07/22 11:55:36;;;;;;;10.27;8.20;;;;;;;21.76;54.03;101810.78;5325957;28;20076;-84
2022/07/22 11:58:08;;;;;;;10.20;7.57;;;;;;;21.70;54.03;101813.00;5321377;28;20130;-83
2022/07/22 12:00:39;;;;;;;12.75;10.88;;;;;;;21.73;53.23;101810.63;5325681;28;20380;-83
2022/07/22 12:03:11;;;;;;;5.95;4.93;;;;;;;21.73;52.59;101808.66;5304673;28;20488;-82
2022/07/22 12:05:42;;;;;;;6.80;6.10;;;;;;;21.55;52.96;101805.13;5305861;28;20024;-81
2022/07/22 12:08:13;;;;;;;5.55;4.20;;;;;;;21.76;53.58;101801.50;5308647;28;20028;-83
2022/07/22 12:10:45;;;;;;;8.88;5.53;;;;;;;21.69;53.54;101799.22;5308217;28;20270;-83
2022/07/22 12:13:16;;;;;;;6.00;5.35;;;;;;;21.70;53.75;101801.69;5305595;28;20406;-84
2022/07/22 12:15:48;;;;;;;9.93;5.93;;;;;;;21.52;53.80;101796.50;5305838;28;20027;-85
2022/07/22 12:18:24;;;;;;;10.27;5.95;;;;;;;21.74;53.40;101795.38;5313727;28;20023;-84
2022/07/22 12:20:55;;;;;;;6.78;5.90;;;;;;;21.65;52.61;101796.25;5328587;28;20027;-84
2022/07/22 12:23:28;;;;;;;6.45;5.53;;;;;;;21.88;52.57;101798.72;5329735;28;20031;-86
2022/07/22 12:26:01;;;;;;;7.10;6.30;;;;;;;21.79;53.68;101795.97;5328928;28;20031;-84
2022/07/22 12:28:33;;;;;;;8.98;6.28;;;;;;;22.03;53.69;101792.47;5330058;28;20042;-85
2022/07/22 12:31:04;;;;;;;7.50;6.78;;;;;;;22.01;53.62;101794.81;5336967;28;20063;-87
2022/07/22 12:33:36;;;;;;;9.45;8.05;;;;;;;21.84;52.45;101795.78;5335713;28;20028;-86
2022/07/22 12:36:07;;;;;;;10.10;7.25;;;;;;;21.86;52.40;101796.25;5327123;28;20027;-87
2022/07/22 12:38:39;;;;;;;7.78;6.53;;;;;;;21.96;53.10;101797.84;5329390;28;20091;-84
2022/07/22 12:41:29;;;;;;;7.50;6.72;;;;;;;22.09;52.81;101793.91;5322506;28;20062;-79
2022/07/22 12:44:01;;;;;;;6.90;6.20;;;;;;;22.34;52.54;101796.88;5312008;28;20444;-88
2022/07/22 12:46:32;;;;;;;9.07;7.25;;;;;;;22.23;51.97;101787.19;5310764;28;20103;-87
2022/07/22 12:49:03;;;;;;;8.05;7.18;;;;;;;22.00;52.57;101798.81;5316658;28;20034;-86
2022/07/22 12:51:36;;;;;;;9.73;7.32;;;;;;;22.20;52.03;101796.34;5317542;28;20023;-89
2022/07/22 12:54:07;;;;;;;6.47;5.88;;;;;;;22.24;52.02;101794.47;5309713;28;20024;-87
2022/07/22 12:56:40;;;;;;;9.82;7.20;;;;;;;22.36;51.94;101789.69;5322459;28;20073;-86
2022/07/22 12:59:12;;;;;;;64.35;58.28;;;;;;;22.44;52.54;101785.13;5308619;28;20063;-88
2022/07/22 13:01:43;;;;;;;7.90;6.43;;;;;;;22.52;52.10;101781.41;5322394;28;20495;-87
2022/07/22 13:04:14;;;;;;;9.18;6.50;;;;;;;22.35;52.52;101768.28;5332754;28;20020;-86
2022/07/22 13:06:46;;;;;;;8.18;7.32;;;;;;;22.49;52.05;101770.78;5333608;28;20067;-87
2022/07/22 13:09:18;;;;;;;9.00;7.47;;;;;;;22.35;51.83;101778.75;5317867;28;20483;-87
2022/07/22 13:11:49;;;;;;;9.02;7.25;;;;;;;22.44;53.05;101778.66;5312057;28;20111;-87
2022/07/22 13:14:21;;;;;;;7.00;6.32;;;;;;;22.62;52.43;101784.94;5309925;28;20582;-86
2022/07/22 13:16:52;;;;;;;8.07;6.45;;;;;;;22.51;51.20;101785.38;5310256;28;20039;-80
2022/07/22 13:19:23;;;;;;;11.30;8.80;;;;;;;22.39;50.67;101793.81;5309520;28;20027;-88
2022/07/22 13:21:54;;;;;;;7.63;6.93;;;;;;;22.57;51.40;101789.66;5307757;28;20027;-84
2022/07/22 13:24:26;;;;;;;7.43;6.72;;;;;;;22.50;50.75;101785.75;5307521;28;20111;-86
2022/07/22 13:26:57;;;;;;;8.57;7.57;;;;;;;22.40;50.65;101789.84;5320720;28;20054;-83
2022/07/22 13:29:28;;;;;;;8.05;6.63;;;;;;;22.37;51.54;101793.38;5326312;28;20031;-85
2022/07/22 13:32:00;;;;;;;7.38;5.90;;;;;;;22.46;50.95;101793.28;5326632;28;20114;-83
2022/07/22 13:34:31;;;;;;;7.03;6.35;;;;;;;22.35;50.97;101788.06;5317252;28;20032;-83
2022/07/22 13:37:03;;;;;;;8.10;7.20;;;;;;;22.36;50.89;101794.53;5325073;28;20145;-83
2022/07/22 13:39:34;;;;;;;7.60;6.40;;;;;;;22.45;51.08;101791.63;5324499;28;20463;-86
2022/07/22 13:42:06;;;;;;;7.55;6.78;;;;;;;22.61;51.24;101783.31;5307976;28;20024;-84
2022/07/22 13:44:37;;;;;;;8.77;6.85;;;;;;;22.53;50.94;101782.22;5321195;28;20106;-82
2022/07/22 13:47:08;;;;;;;6.95;6.22;;;;;;;22.81;51.15;101782.41;5328021;28;20107;-83
2022/07/22 13:49:40;;;;;;;8.32;7.30;;;;;;;22.62;50.72;101779.28;5321123;28;20030;-90
2022/07/22 13:52:11;;;;;;;13.20;8.55;;;;;;;22.93;51.06;101767.44;5344158;28;20045;-86
2022/07/22 13:54:42;;;;;;;8.18;6.85;;;;;;;22.78;49.52;101755.66;5324137;28;20032;-85
2022/07/22 13:57:14;;;;;;;8.80;6.45;;;;;;;22.81;50.10;101759.78;5309957;28;20042;-85
2022/07/22 13:59:45;;;;;;;9.98;7.22;;;;;;;22.70;50.20;101769.88;5318692;28;20033;-82
2022/07/22 14:02:17;;;;;;;8.73;7.88;;;;;;;22.61;49.92;101769.19;5314330;28;20028;-86
2022/07/22 14:04:48;;;;;;;8.82;7.07;;;;;;;22.50;49.62;101765.97;5315256;28;20428;-86
2022/07/22 14:07:19;;;;;;;7.90;7.10;;;;;;;22.68;49.38;101767.44;5319452;28;20475;-85
2022/07/22 14:09:51;;;;;;;8.25;6.80;;;;;;;22.91;49.63;101764.97;5330431;28;20437;-81
2022/07/22 14:12:23;;;;;;;6.97;6.30;;;;;;;22.89;49.77;101770.16;5329579;28;20026;-84
2022/07/22 14:14:54;;;;;;;7.78;6.93;;;;;;;22.89;49.47;101775.81;5307591;28;20083;-87
2022/07/22 14:17:25;;;;;;;8.23;7.53;;;;;;;22.58;49.46;101777.16;5315802;28;20417;-81
2022/07/22 14:19:57;;;;;;;7.20;6.60;;;;;;;22.44;49.20;101767.34;5318478;28;20027;-84
2022/07/22 14:22:28;;;;;;;46.08;42.40;;;;;;;22.68;49.99;101755.28;5323010;28;20023;-81
2022/07/22 14:24:59;;;;;;;13.65;11.57;;;;;;;22.73;50.03;101755.06;5311110;28;20431;-77
2022/07/22 14:27:31;;;;;;;20.58;18.45;;;;;;;22.70;49.65;101764.22;5304412;28;20032;-76
2022/07/22 14:30:03;;;;;;;7.93;6.97;;;;;;;22.78;49.65;101763.31;5310898;28;20463;-74
2022/07/22 14:32:34;;;;;;;7.20;6.50;;;;;;;22.89;49.32;101775.00;5326075;28;20034;-75
2022/07/22 14:35:06;;;;;;;9.32;7.38;;;;;;;22.99;48.88;101761.25;5306556;28;20107;-75
2022/07/22 14:37:38;;;;;;;7.90;6.68;;;;;;;23.03;48.92;101747.22;5304261;28;20385;-74
2022/07/22 14:40:10;;;;;;;7.95;7.22;;;;;;;22.99;48.43;101755.59;5304931;28;20495;-76
2022/07/22 14:42:41;;;;;;;9.07;7.10;;;;;;;23.13;48.22;101760.06;5305261;28;20036;-75
2022/07/22 14:45:12;;;;;;;6.57;5.97;;;;;;;23.19;49.21;101759.50;5305020;28;20368;-74
2022/07/22 14:47:44;;;;;;;10.20;6.95;;;;;;;23.39;49.30;101743.56;5307971;28;20391;-75
2022/07/22 14:50:15;;;;;;;9.00;7.30;;;;;;;23.23;48.64;101740.59;5311389;28;20045;-76
2022/07/22 14:52:46;;;;;;;8.52;7.07;;;;;;;23.31;48.73;101755.81;5321520;28;20077;-75
2022/07/22 14:55:18;;;;;;;7.20;6.50;;;;;;;23.51;48.40;101753.19;5315669;28;20502;-76
2022/07/22 14:57:49;;;;;;;8.57;7.18;;;;;;;23.24;48.19;101747.13;5308164;28;20097;-75
2022/07/22 15:00:20;;;;;;;7.95;6.90;;;;;;;23.27;48.80;101746.41;5308214;28;20077;-75
2022/07/22 15:02:52;;;;;;;8.35;7.05;;;;;;;23.11;48.31;101754.78;5321773;28;20054;-76
2022/07/22 15:05:23;;;;;;;7.28;6.55;;;;;;;23.11;48.56;101748.28;5323734;27;20027;-78
2022/07/22 15:07:55;;;;;;;8.25;6.22;;;;;;;23.09;48.33;101739.34;5319470;28;20450;-75
2022/07/22 15:10:26;;;;;;;6.90;6.25;;;;;;;23.05;49.29;101738.38;5324517;28;20024;-76
2022/07/22 15:12:57;;;;;;;7.28;6.57;;;;;;;23.06;48.81;101742.84;5323151;28;20024;-75
2022/07/22 15:15:29;;;;;;;7.65;6.53;;;;;;;23.06;49.46;101737.19;5324186;28;20485;-75
2022/07/22 15:18:01;;;;;;;9.73;7.95;;;;;;;22.94;49.72;101741.66;5312492;28;20496;-76
2022/07/22 15:20:34;;;;;;;12.25;10.00;;;;;;;22.98;49.86;101734.16;5303030;28;20051;-76
2022/07/22 15:23:05;;;;;;;8.55;7.68;;;;;;;22.92;49.64;101732.69;5302851;28;20099;-76
2022/07/22 15:25:37;;;;;;;7.82;6.97;;;;;;;22.97;49.54;101740.16;5312808;28;20473;-76
2022/07/22 15:28:08;;;;;;;9.90;7.85;;;;;;;22.84;49.73;101730.81;5324418;28;20050;-78
2022/07/22 15:30:39;;;;;;;9.52;8.65;;;;;;;22.80;49.70;101732.66;5324126;28;20098;-80
2022/07/22 15:33:11;;;;;;;10.10;8.80;;;;;;;22.87;49.97;101730.09;5323398;28;20019;-80
2022/07/22 15:35:42;;;;;;;11.13;9.07;;;;;;;22.63;50.28;101724.44;5322844;28;20042;-78
2022/07/22 15:38:14;;;;;;;8.60;7.68;;;;;;;22.73;50.51;101716.31;5325335;28;20116;-80
2022/07/22 15:40:45;;;;;;;8.13;7.32;;;;;;;22.83;50.60;101717.00;5312780;28;20032;-78
2022/07/22 15:43:16;;;;;;;9.27;8.27;;;;;;;22.78;50.31;101710.41;5322441;28;20027;-79
2022/07/22 15:45:48;;;;;;;9.77;8.68;;;;;;;22.64;51.77;101700.63;5324364;28;20508;-78
2022/07/22 15:48:19;;;;;;;9.18;8.20;;;;;;;22.80;50.87;101695.91;5328243;28;20034;-78
2022/07/22 15:50:50;;;;;;;12.40;11.23;;;;;;;22.63;50.64;101690.50;5314670;28;20028;-79
2022/07/22 15:53:23;;;;;;;10.57;9.52;;;;;;;22.64;50.46;101689.31;5324349;28;20023;-79
2022/07/22 15:55:54;;;;;;;10.00;9.00;;;;;;;22.66;50.69;101701.09;5320984;27;20041;-78
2022/07/22 16:01:16;;;;;;;28.67;25.90;;;;;;;22.55;50.65;101700.75;5301876;28;20036;-79
2022/07/22 16:03:47;;;;;;;22.52;20.08;;;;;;;22.57;50.43;101704.88;5301322;28;20472;-72
2022/07/22 16:06:18;;;;;;;10.35;9.30;;;;;;;22.60;50.65;101702.50;5309618;28;20016;-72
2022/07/22 16:08:50;;;;;;;9.45;7.70;;;;;;;22.62;50.28;101708.63;5321166;28;20020;-71
2022/07/22 16:11:24;;;;;;;9.27;8.32;;;;;;;22.58;50.19;101702.84;5305151;28;20118;-72
2022/07/22 16:13:55;;;;;;;10.18;9.00;;;;;;;22.55;50.60;101700.75;5302631;28;20066;-71
2022/07/22 16:16:26;;;;;;;10.23;9.10;;;;;;;22.68;50.83;101696.75;5303493;28;20032;-72
2022/07/22 16:18:58;;;;;;;10.63;9.52;;;;;;;22.63;50.96;101690.50;5303243;28;20043;-72
2022/07/22 16:21:29;;;;;;;9.55;8.15;;;;;;;22.71;51.18;101683.91;5305860;28;20153;-72
2022/07/22 16:24:00;;;;;;;12.40;9.88;;;;;;;22.45;50.79;101685.06;5306711;28;20016;-71
2022/07/22 16:26:32;;;;;;;10.13;8.88;;;;;;;22.52;51.05;101684.47;5306551;28;20024;-70
2022/07/22 16:29:03;;;;;;;9.50;8.48;;;;;;;22.33;51.29;101680.19;5305580;28;20475;-71
2022/07/22 16:31:34;;;;;;;9.82;7.75;;;;;;;22.56;51.31;101691.06;5306503;28;20533;-72
2022/07/22 16:34:06;;;;;;;15.02;10.80;;;;;;;22.54;51.02;101694.22;5320752;28;20019;-71
2022/07/22 16:36:37;;;;;;;10.27;8.88;;;;;;;22.44;50.84;101708.81;5327031;28;20077;-72
2022/07/22 16:39:08;;;;;;;12.40;9.23;;;;;;;22.36;50.90;101701.28;5327447;28;20111;-72
2022/07/22 16:41:40;;;;;;;9.85;8.57;;;;;;;22.23;51.04;101710.91;5319856;28;20016;-70
2022/07/22 16:44:11;;;;;;;10.75;9.20;;;;;;;22.17;51.04;101701.78;5315812;28;20027;-72
2022/07/22 16:46:42;;;;;;;9.43;8.18;;;;;;;22.17;51.21;101698.16;5312677;28;20039;-71
2022/07/22 16:49:14;;;;;;;9.00;7.93;;;;;;;22.29;51.14;101698.19;5306059;28;20106;-71
2022/07/22 16:51:45;;;;;;;9.05;7.32;;;;;;;22.35;50.84;101691.97;5325186;28;20016;-72
2022/07/22 16:54:16;;;;;;;8.50;7.53;;;;;;;22.40;51.20;101688.09;5320964;28;20020;-75
2022/07/22 16:56:48;;;;;;;7.90;6.15;;;;;;;22.34;52.47;101678.19;5324677;28;20123;-75
2022/07/22 16:59:19;;;;;;;7.75;6.60;;;;;;;22.43;52.22;101683.75;5324494;28;20063;-76
2022/07/22 17:01:50;;;;;;;8.55;7.13;;;;;;;22.29;52.56;101679.25;5326737;28;20020;-76
2022/07/22 17:04:22;;;;;;;7.28;5.97;;;;;;;22.31;52.42;101679.72;5326290;28;20626;-77
2022/07/22 17:06:53;;;;;;;7.60;6.18;;;;;;;22.32;53.07;101663.59;5321253;28;20055;-77
2022/07/22 17:09:24;;;;;;;7.72;5.65;;;;;;;22.27;53.55;101659.00;5305874;28;20032;-75
2022/07/22 17:12:00;;;;;;;7.15;6.38;;;;;;;22.27;53.07;101672.31;5325371;28;20031;-73
2022/07/22 17:14:31;;;;;;;;;;;;;;;22.37;52.22;101677.50;5327051;28;20524;-75
2022/07/22 17:17:02;;;;;;;9.37;6.40;;;;;;;22.10;53.39;101673.28;5325575;28;20001;-76
2022/07/22 17:19:34;;;;;;;7.05;6.30;;;;;;;21.96;53.50;101673.59;5325429;28;20144;-76
2022/07/22 17:22:05;;;;;;;6.28;5.15;;;;;;;22.15;54.04;101662.56;5325569;28;20027;-76
2022/07/22 17:24:39;;;;;;;8.13;7.13;;;;;;;22.13;54.40;101659.28;5315207;27;20020;-76
2022/07/22 17:27:10;;;;;;;8.15;6.53;;;;;;;22.23;54.33;101662.88;5304484;28;20150;-76
2022/07/22 17:29:42;;;;;;;7.05;5.57;;;;;;;22.15;55.02;101651.28;5303919;28;20392;-76
